createdAt,value
2023-04-01T00:00:41.270Z,991.78
2023-04-01T00:01:41.262Z,991.71
2023-04-01T00:02:41.384Z,991.75
2023-04-01T00:03:41.358Z,991.73
2023-04-01T00:04:41.604Z,991.75
2023-04-01T00:05:41.221Z,991.71
2023-04-01T00:06:41.202Z,991.73
2023-04-01T00:07:41.212Z,991.76
2023-04-01T00:08:41.179Z,991.74
2023-04-01T00:09:41.176Z,991.72
2023-04-01T00:10:41.162Z,991.70
2023-04-01T00:11:41.146Z,991.67
2023-04-01T00:12:41.133Z,991.69
2023-04-01T00:13:41.133Z,991.69
2023-04-01T00:14:41.145Z,991.71
2023-04-01T00:15:41.105Z,991.68
2023-04-01T00:16:41.116Z,991.70
2023-04-01T00:17:41.121Z,991.65
2023-04-01T00:18:41.064Z,991.67
2023-04-01T00:19:41.058Z,991.72
2023-04-01T00:20:41.050Z,991.72
2023-04-01T00:21:41.028Z,991.72
2023-04-01T00:22:41.022Z,991.71
2023-04-01T00:23:41.012Z,991.73
2023-04-01T00:24:40.996Z,991.70
2023-04-01T00:25:40.988Z,991.77
2023-04-01T00:26:40.975Z,991.74
2023-04-01T00:27:40.962Z,991.66
2023-04-01T00:28:40.975Z,991.66
2023-04-01T00:29:40.941Z,991.70
2023-04-01T00:30:40.967Z,991.69
2023-04-01T00:31:40.941Z,991.66
2023-04-01T00:32:40.930Z,991.67
2023-04-01T00:33:40.897Z,991.71
2023-04-01T00:34:40.889Z,991.69
2023-04-01T00:35:40.890Z,991.62
2023-04-01T00:36:40.872Z,991.68
2023-04-01T00:37:40.853Z,991.69
2023-04-01T00:38:40.854Z,991.67
2023-04-01T00:39:40.826Z,991.59
2023-04-01T00:40:40.818Z,991.62
2023-04-01T00:41:40.806Z,991.66
2023-04-01T00:42:40.798Z,991.68
2023-04-01T00:43:40.792Z,991.68
2023-04-01T00:44:40.779Z,991.67
2023-04-01T00:45:40.764Z,991.63
2023-04-01T00:46:40.874Z,991.60
2023-04-01T00:47:40.738Z,991.67
2023-04-01T00:48:40.743Z,991.58
2023-04-01T00:49:40.735Z,991.64
2023-04-01T00:50:40.700Z,991.66
2023-04-01T00:51:40.692Z,991.70
2023-04-01T00:52:40.686Z,991.65
2023-04-01T00:53:40.671Z,991.67
2023-04-01T00:54:40.676Z,991.70
2023-04-01T00:55:40.656Z,991.67
2023-04-01T00:56:40.638Z,991.70
2023-04-01T00:57:40.621Z,991.71
2023-04-01T00:58:40.612Z,991.74
2023-04-01T00:59:40.599Z,991.72
2023-04-01T01:00:40.626Z,991.71
2023-04-01T01:01:40.722Z,991.67
2023-04-01T01:02:40.806Z,991.68
2023-04-01T01:03:40.565Z,991.72
2023-04-01T01:04:40.543Z,991.79
2023-04-01T01:05:48.875Z,991.67
2023-04-01T01:06:40.527Z,991.65
2023-04-01T01:07:40.506Z,991.75
2023-04-01T01:08:40.501Z,991.69
2023-04-01T01:09:40.490Z,991.64
2023-04-01T01:10:40.473Z,991.73
2023-04-01T01:11:43.502Z,991.66
2023-04-01T01:12:40.451Z,991.67
2023-04-01T01:13:40.439Z,991.67
2023-04-01T01:14:40.441Z,991.74
2023-04-01T01:15:40.422Z,991.70
2023-04-01T01:16:40.418Z,991.72
2023-04-01T01:17:40.440Z,991.70
2023-04-01T01:18:40.411Z,991.69
2023-04-01T01:19:40.371Z,991.73
2023-04-01T01:20:40.367Z,991.66
2023-04-01T01:21:40.347Z,991.71
2023-04-01T01:22:40.334Z,991.75
2023-04-01T01:23:40.325Z,991.71
2023-04-01T01:24:40.317Z,991.66
2023-04-01T01:25:40.310Z,991.73
2023-04-01T01:26:40.307Z,991.74
2023-04-01T01:27:40.276Z,991.78
2023-04-01T01:28:40.265Z,991.74
2023-04-01T01:29:40.253Z,991.72
2023-04-01T01:30:40.248Z,991.72
2023-04-01T01:31:40.229Z,991.72
2023-04-01T01:32:40.270Z,991.73
2023-04-01T01:33:40.207Z,991.78
2023-04-01T01:34:40.224Z,991.75
2023-04-01T01:35:40.286Z,991.78
2023-04-01T01:36:40.175Z,991.77
2023-04-01T01:37:40.166Z,991.74
2023-04-01T01:38:40.147Z,991.76
2023-04-01T01:39:40.138Z,991.80
2023-04-01T01:40:40.126Z,991.79
2023-04-01T01:41:40.117Z,991.75
2023-04-01T01:42:40.116Z,991.80
2023-04-01T01:43:40.095Z,991.70
2023-04-01T01:44:40.081Z,991.81
2023-04-01T01:45:40.078Z,991.79
2023-04-01T01:46:40.251Z,991.83
2023-04-01T01:47:40.117Z,991.82
2023-04-01T01:48:40.041Z,991.79
2023-04-01T01:49:40.023Z,991.82
2023-04-01T01:50:40.037Z,991.85
2023-04-01T01:51:40.007Z,991.82
2023-04-01T01:52:39.992Z,991.84
2023-04-01T01:53:39.982Z,991.81
2023-04-01T01:54:39.964Z,991.77
2023-04-01T01:55:39.970Z,991.86
2023-04-01T01:56:39.957Z,991.88
2023-04-01T01:57:39.942Z,991.89
2023-04-01T01:58:39.931Z,991.90
2023-04-01T01:59:39.906Z,991.89
2023-04-01T02:00:39.904Z,991.95
2023-04-01T02:01:39.895Z,991.89
2023-04-01T02:02:39.894Z,991.91
2023-04-01T02:03:39.862Z,991.92
2023-04-01T02:04:39.926Z,991.96
2023-04-01T02:05:39.842Z,991.96
2023-04-01T02:06:39.856Z,991.93
2023-04-01T02:07:39.831Z,991.94
2023-04-01T02:08:39.828Z,991.90
2023-04-01T02:09:39.794Z,991.90
2023-04-01T02:10:39.783Z,991.95
2023-04-01T02:11:39.771Z,991.92
2023-04-01T02:12:39.755Z,991.90
2023-04-01T02:13:39.750Z,991.90
2023-04-01T02:14:39.740Z,991.91
2023-04-01T02:15:39.765Z,992.02
2023-04-01T02:16:39.709Z,991.96
2023-04-01T02:17:39.730Z,991.95
2023-04-01T02:18:39.690Z,991.92
2023-04-01T02:19:39.683Z,991.88
2023-04-01T02:20:39.662Z,991.93
2023-04-01T02:21:39.658Z,991.90
2023-04-01T02:22:39.668Z,991.95
2023-04-01T02:23:39.633Z,991.92
2023-04-01T02:24:39.618Z,991.83
2023-04-01T02:25:39.613Z,991.89
2023-04-01T02:26:39.592Z,991.92
2023-04-01T02:27:39.580Z,991.86
2023-04-01T02:28:39.576Z,991.88
2023-04-01T02:29:39.562Z,991.90
2023-04-01T02:30:39.550Z,991.94
2023-04-01T02:31:39.611Z,991.88
2023-04-01T02:32:39.619Z,991.94
2023-04-01T02:33:39.512Z,991.91
2023-04-01T02:34:39.507Z,991.91
2023-04-01T02:35:39.663Z,991.96
2023-04-01T02:36:39.476Z,991.97
2023-04-01T02:37:40.574Z,992.01
2023-04-01T02:38:39.482Z,991.97
2023-04-01T02:39:39.445Z,991.98
2023-04-01T02:40:39.436Z,992.01
2023-04-01T02:41:39.418Z,992.00
2023-04-01T02:42:39.431Z,992.03
2023-04-01T02:43:39.397Z,991.97
2023-04-01T02:44:39.388Z,991.94
2023-04-01T02:45:39.376Z,992.00
2023-04-01T02:46:39.444Z,992.02
2023-04-01T02:47:39.397Z,991.98
2023-04-01T02:48:39.346Z,992.03
2023-04-01T02:49:39.334Z,991.96
2023-04-01T02:50:39.322Z,992.03
2023-04-01T02:51:39.325Z,992.05
2023-04-01T02:52:39.301Z,992.00
2023-04-01T02:53:39.293Z,992.04
2023-04-01T02:54:39.297Z,992.05
2023-04-01T02:55:39.265Z,992.11
2023-04-01T02:56:39.259Z,992.08
2023-04-01T02:57:39.238Z,992.09
2023-04-01T02:58:39.246Z,992.11
2023-04-01T02:59:39.223Z,992.09
2023-04-01T03:00:39.210Z,992.14
2023-04-01T03:01:39.269Z,992.09
2023-04-01T03:02:39.248Z,992.17
2023-04-01T03:03:39.237Z,992.17
2023-04-01T03:04:39.162Z,992.15
2023-04-01T03:05:39.148Z,992.15
2023-04-01T03:06:39.143Z,992.11
2023-04-01T03:07:39.132Z,992.08
2023-04-01T03:08:39.116Z,992.12
2023-04-01T03:09:39.120Z,992.18
2023-04-01T03:10:39.127Z,992.11
2023-04-01T03:11:39.080Z,992.17
2023-04-01T03:12:39.069Z,992.16
2023-04-01T03:13:39.084Z,992.12
2023-04-01T03:14:39.049Z,992.16
2023-04-01T03:15:39.034Z,992.11
2023-04-01T03:16:39.053Z,992.14
2023-04-01T03:17:39.082Z,992.17
2023-04-01T03:18:39.004Z,992.16
2023-04-01T03:19:38.999Z,992.23
2023-04-01T03:20:38.982Z,992.13
2023-04-01T03:21:38.965Z,992.15
2023-04-01T03:22:41.423Z,992.19
2023-04-01T03:23:38.941Z,992.15
2023-04-01T03:24:38.934Z,992.18
2023-04-01T03:25:38.921Z,992.20
2023-04-01T03:26:38.931Z,992.17
2023-04-01T03:27:38.918Z,992.21
2023-04-01T03:28:38.891Z,992.18
2023-04-01T03:29:38.889Z,992.25
2023-04-01T03:30:38.899Z,992.23
2023-04-01T03:31:38.849Z,992.20
2023-04-01T03:32:38.854Z,992.24
2023-04-01T03:33:38.831Z,992.21
2023-04-01T03:34:38.815Z,992.24
2023-04-01T03:35:38.811Z,992.23
2023-04-01T03:36:38.836Z,992.24
2023-04-01T03:37:38.790Z,992.23
2023-04-01T03:38:38.772Z,992.22
2023-04-01T03:39:38.763Z,992.29
2023-04-01T03:40:38.748Z,992.29
2023-04-01T03:41:38.752Z,992.24
2023-04-01T03:42:38.797Z,992.29
2023-04-01T03:43:38.712Z,992.23
2023-04-01T03:44:38.710Z,992.28
2023-04-01T03:45:38.692Z,992.28
2023-04-01T03:46:38.744Z,992.35
2023-04-01T03:47:38.788Z,992.33
2023-04-01T03:48:38.655Z,992.37
2023-04-01T03:49:38.646Z,992.38
2023-04-01T03:50:38.633Z,992.36
2023-04-01T03:51:38.622Z,992.43
2023-04-01T03:52:38.616Z,992.38
2023-04-01T03:53:38.596Z,992.35
2023-04-01T03:54:38.616Z,992.39
2023-04-01T03:55:38.582Z,992.43
2023-04-01T03:56:38.572Z,992.41
2023-04-01T03:57:38.558Z,992.41
2023-04-01T03:58:38.570Z,992.47
2023-04-01T03:59:38.529Z,992.43
2023-04-01T04:00:38.517Z,992.40
2023-04-01T04:01:38.512Z,992.41
2023-04-01T04:02:38.580Z,992.43
2023-04-01T04:03:38.619Z,992.47
2023-04-01T04:04:38.513Z,992.49
2023-04-01T04:05:38.492Z,992.50
2023-04-01T04:06:38.453Z,992.51
2023-04-01T04:07:38.443Z,992.50
2023-04-01T04:08:38.436Z,992.47
2023-04-01T04:09:38.421Z,992.51
2023-04-01T04:10:38.411Z,992.57
2023-04-01T04:11:38.399Z,992.52
2023-04-01T04:12:38.382Z,992.57
2023-04-01T04:13:38.379Z,992.49
2023-04-01T04:14:38.384Z,992.55
2023-04-01T04:15:38.348Z,992.56
2023-04-01T04:16:38.343Z,992.54
2023-04-01T04:17:38.346Z,992.54
2023-04-01T04:18:38.317Z,992.56
2023-04-01T04:19:38.307Z,992.57
2023-04-01T04:20:38.298Z,992.56
2023-04-01T04:21:38.279Z,992.55
2023-04-01T04:22:38.277Z,992.57
2023-04-01T04:23:38.261Z,992.59
2023-04-01T04:24:38.250Z,992.61
2023-04-01T04:25:38.237Z,992.61
2023-04-01T04:26:38.241Z,992.65
2023-04-01T04:27:38.227Z,992.62
2023-04-01T04:28:38.200Z,992.61
2023-04-01T04:29:38.251Z,992.64
2023-04-01T04:30:38.207Z,992.65
2023-04-01T04:31:38.184Z,992.66
2023-04-01T04:32:38.295Z,992.57
2023-04-01T04:33:38.153Z,992.62
2023-04-01T04:34:38.134Z,992.64
2023-04-01T04:35:38.148Z,992.64
2023-04-01T04:36:38.107Z,992.63
2023-04-01T04:37:38.104Z,992.71
2023-04-01T04:38:38.091Z,992.64
2023-04-01T04:39:38.073Z,992.74
2023-04-01T04:40:40.067Z,992.72
2023-04-01T04:41:38.050Z,992.67
2023-04-01T04:42:38.042Z,992.75
2023-04-01T04:43:38.032Z,992.75
2023-04-01T04:44:38.025Z,992.78
2023-04-01T04:45:40.021Z,992.70
2023-04-01T04:46:40.097Z,992.77
2023-04-01T04:47:38.014Z,992.74
2023-04-01T04:48:37.975Z,992.76
2023-04-01T04:49:39.953Z,992.72
2023-04-01T04:50:37.949Z,992.76
2023-04-01T04:51:39.939Z,992.76
2023-04-01T04:52:37.924Z,992.74
2023-04-01T04:53:37.914Z,992.80
2023-04-01T04:54:39.899Z,992.80
2023-04-01T04:55:37.907Z,992.80
2023-04-01T04:56:37.889Z,992.84
2023-04-01T04:57:39.865Z,992.75
2023-04-01T04:58:37.859Z,992.79
2023-04-01T04:59:39.856Z,992.78
2023-04-01T05:00:37.838Z,992.78
2023-04-01T05:01:37.872Z,992.77
2023-04-01T05:02:37.907Z,992.76
2023-04-01T05:03:37.842Z,992.80
2023-04-01T05:04:37.799Z,992.77
2023-04-01T05:05:37.792Z,992.76
2023-04-01T05:06:37.762Z,992.77
2023-04-01T05:07:39.756Z,992.76
2023-04-01T05:08:39.756Z,992.79
2023-04-01T05:09:37.730Z,992.80
2023-04-01T05:10:37.723Z,992.85
2023-04-01T05:11:39.705Z,992.81
2023-04-01T05:12:37.698Z,992.88
2023-04-01T05:13:37.682Z,992.84
2023-04-01T05:14:37.670Z,992.94
2023-04-01T05:15:37.669Z,992.91
2023-04-01T05:16:37.726Z,992.87
2023-04-01T05:17:37.657Z,992.91
2023-04-01T05:18:37.747Z,992.89
2023-04-01T05:19:37.613Z,992.88
2023-04-01T05:20:37.606Z,992.90
2023-04-01T05:21:37.592Z,992.89
2023-04-01T05:22:37.578Z,992.86
2023-04-01T05:23:37.566Z,992.88
2023-04-01T05:24:37.559Z,992.91
2023-04-01T05:25:37.546Z,992.92
2023-04-01T05:26:37.536Z,992.93
2023-04-01T05:27:37.522Z,992.86
2023-04-01T05:28:37.511Z,992.93
2023-04-01T05:29:37.515Z,992.88
2023-04-01T05:30:37.544Z,992.91
2023-04-01T05:31:37.496Z,992.97
2023-04-01T05:32:37.498Z,992.96
2023-04-01T05:33:37.469Z,993.02
2023-04-01T05:34:37.476Z,993.02
2023-04-01T05:35:37.453Z,993.00
2023-04-01T05:36:37.431Z,992.95
2023-04-01T05:37:37.417Z,993.02
2023-04-01T05:38:37.413Z,992.99
2023-04-01T05:39:37.389Z,993.02
2023-04-01T05:40:37.386Z,993.06
2023-04-01T05:41:37.371Z,993.02
2023-04-01T05:42:38.489Z,993.01
2023-04-01T05:43:37.372Z,993.03
2023-04-01T05:44:37.351Z,993.04
2023-04-01T05:45:37.322Z,993.08
2023-04-01T05:46:37.350Z,993.07
2023-04-01T05:47:37.309Z,993.09
2023-04-01T05:48:37.303Z,993.06
2023-04-01T05:49:37.276Z,993.03
2023-04-01T05:50:37.302Z,993.10
2023-04-01T05:51:37.254Z,993.07
2023-04-01T05:52:37.241Z,993.12
2023-04-01T05:53:37.230Z,993.11
2023-04-01T05:54:37.217Z,993.07
2023-04-01T05:55:37.206Z,993.07
2023-04-01T05:56:37.193Z,993.12
2023-04-01T05:57:37.224Z,993.12
2023-04-01T05:58:37.177Z,993.15
2023-04-01T05:59:37.156Z,993.17
2023-04-01T06:00:37.165Z,993.15
2023-04-01T06:01:37.132Z,993.20
2023-04-01T06:02:37.169Z,993.15
2023-04-01T06:03:37.208Z,993.15
2023-04-01T06:04:37.126Z,993.25
2023-04-01T06:05:37.091Z,993.21
2023-04-01T06:06:37.099Z,993.22
2023-04-01T06:07:37.068Z,993.22
2023-04-01T06:08:37.282Z,993.17
2023-04-01T06:09:37.049Z,993.23
2023-04-01T06:10:37.026Z,993.22
2023-04-01T06:11:37.017Z,993.29
2023-04-01T06:12:37.005Z,993.28
2023-04-01T06:13:36.996Z,993.28
2023-04-01T06:14:36.985Z,993.31
2023-04-01T06:15:36.973Z,993.30
2023-04-01T06:16:37.001Z,993.35
2023-04-01T06:17:36.979Z,993.31
2023-04-01T06:18:36.970Z,993.37
2023-04-01T06:19:36.925Z,993.33
2023-04-01T06:20:36.922Z,993.37
2023-04-01T06:21:36.910Z,993.38
2023-04-01T06:22:36.927Z,993.40
2023-04-01T06:23:36.899Z,993.38
2023-04-01T06:24:36.875Z,993.42
2023-04-01T06:25:36.862Z,993.45
2023-04-01T06:26:36.858Z,993.39
2023-04-01T06:27:36.839Z,993.43
2023-04-01T06:28:36.824Z,993.46
2023-04-01T06:29:36.829Z,993.50
2023-04-01T06:30:36.809Z,993.45
2023-04-01T06:31:36.828Z,993.45
2023-04-01T06:32:36.820Z,993.46
2023-04-01T06:33:36.773Z,993.44
2023-04-01T06:34:36.763Z,993.49
2023-04-01T06:35:37.043Z,993.48
2023-04-01T06:36:36.774Z,993.48
2023-04-01T06:37:36.730Z,993.52
2023-04-01T06:38:36.737Z,993.50
2023-04-01T06:39:36.705Z,993.49
2023-04-01T06:40:36.698Z,993.51
2023-04-01T06:41:36.685Z,993.54
2023-04-01T06:42:36.676Z,993.55
2023-04-01T06:43:36.688Z,993.54
2023-04-01T06:44:36.652Z,993.53
2023-04-01T06:45:37.019Z,993.57
2023-04-01T06:46:36.626Z,993.52
2023-04-01T06:47:36.657Z,993.58
2023-04-01T06:48:36.604Z,993.49
2023-04-01T06:49:36.590Z,993.58
2023-04-01T06:50:36.590Z,993.56
2023-04-01T06:51:36.580Z,993.61
2023-04-01T06:52:36.574Z,993.60
2023-04-01T06:53:36.548Z,993.61
2023-04-01T06:54:36.557Z,993.59
2023-04-01T06:55:36.526Z,993.62
2023-04-01T06:56:36.519Z,993.67
2023-04-01T06:57:36.506Z,993.58
2023-04-01T06:58:36.500Z,993.59
2023-04-01T06:59:36.478Z,993.58
2023-04-01T07:00:36.469Z,993.62
2023-04-01T07:01:36.512Z,993.67
2023-04-01T07:02:36.463Z,993.62
2023-04-01T07:03:36.441Z,993.65
2023-04-01T07:04:36.478Z,993.62
2023-04-01T07:05:36.417Z,993.64
2023-04-01T07:06:36.408Z,993.63
2023-04-01T07:07:36.386Z,993.64
2023-04-01T07:08:36.383Z,993.64
2023-04-01T07:09:36.369Z,993.68
2023-04-01T07:10:36.379Z,993.69
2023-04-01T07:11:36.344Z,993.70
2023-04-01T07:12:36.326Z,993.63
2023-04-01T07:13:36.328Z,993.73
2023-04-01T07:14:36.334Z,993.66
2023-04-01T07:15:36.293Z,993.71
2023-04-01T07:16:36.333Z,993.71
2023-04-01T07:17:36.303Z,993.69
2023-04-01T07:18:36.258Z,993.73
2023-04-01T07:19:36.247Z,993.68
2023-04-01T07:20:36.237Z,993.76
2023-04-01T07:21:36.232Z,993.72
2023-04-01T07:22:36.236Z,993.73
2023-04-01T07:23:36.203Z,993.76
2023-04-01T07:24:36.214Z,993.76
2023-04-01T07:25:36.247Z,993.79
2023-04-01T07:26:36.193Z,993.81
2023-04-01T07:27:36.156Z,993.79
2023-04-01T07:28:36.148Z,993.80
2023-04-01T07:29:36.143Z,993.81
2023-04-01T07:30:36.123Z,993.80
2023-04-01T07:31:36.141Z,993.81
2023-04-01T07:32:36.432Z,993.78
2023-04-01T07:33:36.091Z,993.94
2023-04-01T07:34:36.089Z,993.84
2023-04-01T07:35:36.065Z,993.86
2023-04-01T07:36:36.057Z,993.92
2023-04-01T07:37:36.046Z,993.90
2023-04-01T07:38:36.074Z,993.91
2023-04-01T07:39:36.043Z,993.93
2023-04-01T07:40:36.016Z,993.90
2023-04-01T07:41:36.000Z,993.92
2023-04-01T07:42:36.023Z,993.95
2023-04-01T07:43:35.995Z,993.92
2023-04-01T07:44:35.976Z,993.98
2023-04-01T07:45:36.234Z,993.90
2023-04-01T07:46:35.997Z,993.94
2023-04-01T07:47:36.013Z,993.93
2023-04-01T07:48:35.933Z,993.95
2023-04-01T07:49:35.916Z,993.99
2023-04-01T07:50:35.905Z,993.97
2023-04-01T07:51:35.898Z,993.94
2023-04-01T07:52:35.899Z,993.95
2023-04-01T07:53:35.876Z,993.95
2023-04-01T07:54:35.860Z,993.93
2023-04-01T07:55:36.187Z,993.92
2023-04-01T07:56:35.845Z,993.94
2023-04-01T07:57:35.827Z,994.00
2023-04-01T07:58:35.839Z,993.96
2023-04-01T07:59:35.810Z,993.97
2023-04-01T08:00:35.806Z,994.02
2023-04-01T08:01:35.803Z,994.07
2023-04-01T08:02:35.864Z,994.03
2023-04-01T08:03:35.957Z,994.04
2023-04-01T08:04:35.812Z,994.04
2023-04-01T08:05:35.943Z,994.09
2023-04-01T08:06:35.734Z,994.03
2023-04-01T08:07:35.720Z,994.12
2023-04-01T08:08:35.703Z,994.07
2023-04-01T08:09:35.694Z,994.10
2023-04-01T08:10:35.690Z,994.08
2023-04-01T08:11:35.669Z,994.10
2023-04-01T08:12:35.658Z,994.07
2023-04-01T08:13:35.652Z,994.12
2023-04-01T08:14:35.658Z,994.14
2023-04-01T08:15:35.901Z,994.09
2023-04-01T08:16:35.660Z,994.18
2023-04-01T08:17:35.632Z,994.16
2023-04-01T08:18:35.592Z,994.15
2023-04-01T08:19:35.581Z,994.18
2023-04-01T08:20:35.576Z,994.23
2023-04-01T08:21:35.563Z,994.24
2023-04-01T08:22:35.542Z,994.22
2023-04-01T08:23:35.536Z,994.22
2023-04-01T08:24:44.701Z,994.24
2023-04-01T08:25:35.778Z,994.23
2023-04-01T08:26:35.498Z,994.28
2023-04-01T08:27:35.507Z,994.28
2023-04-01T08:28:35.475Z,994.29
2023-04-01T08:29:35.479Z,994.26
2023-04-01T08:30:35.476Z,994.31
2023-04-01T08:31:35.486Z,994.35
2023-04-01T08:32:35.477Z,994.40
2023-04-01T08:33:35.423Z,994.37
2023-04-01T08:34:35.408Z,994.39
2023-04-01T08:35:37.660Z,994.35
2023-04-01T08:36:35.484Z,994.40
2023-04-01T08:37:35.372Z,994.47
2023-04-01T08:38:35.371Z,994.45
2023-04-01T08:39:35.438Z,994.54
2023-04-01T08:40:35.348Z,994.49
2023-04-01T08:41:35.329Z,994.50
2023-04-01T08:42:35.319Z,994.51
2023-04-01T08:43:35.310Z,994.45
2023-04-01T08:44:35.302Z,994.55
2023-04-01T08:45:35.639Z,994.46
2023-04-01T08:46:35.303Z,994.44
2023-04-01T08:47:35.282Z,994.44
2023-04-01T08:48:35.259Z,994.46
2023-04-01T08:49:35.239Z,994.48
2023-04-01T08:50:35.232Z,994.48
2023-04-01T08:51:35.225Z,994.49
2023-04-01T08:52:35.207Z,994.52
2023-04-01T08:53:35.203Z,994.55
2023-04-01T08:54:35.191Z,994.52
2023-04-01T08:55:35.452Z,994.50
2023-04-01T08:56:35.166Z,994.55
2023-04-01T08:57:35.205Z,994.55
2023-04-01T08:58:35.140Z,994.50
2023-04-01T08:59:35.129Z,994.50
2023-04-01T09:00:35.120Z,994.51
2023-04-01T09:01:35.105Z,994.54
2023-04-01T09:02:35.260Z,994.49
2023-04-01T09:03:35.291Z,994.55
2023-04-01T09:04:35.144Z,994.58
2023-04-01T09:05:35.329Z,994.56
2023-04-01T09:06:35.084Z,994.60
2023-04-01T09:07:35.045Z,994.56
2023-04-01T09:08:35.036Z,994.64
2023-04-01T09:09:35.013Z,994.57
2023-04-01T09:10:35.000Z,994.59
2023-04-01T09:11:35.000Z,994.51
2023-04-01T09:12:34.985Z,994.57
2023-04-01T09:13:34.972Z,994.59
2023-04-01T09:14:34.958Z,994.57
2023-04-01T09:15:35.163Z,994.58
2023-04-01T09:16:35.030Z,994.64
2023-04-01T09:17:35.011Z,994.64
2023-04-01T09:18:34.935Z,994.71
2023-04-01T09:19:34.899Z,994.71
2023-04-01T09:20:34.889Z,994.65
2023-04-01T09:21:34.879Z,994.67
2023-04-01T09:22:34.868Z,994.76
2023-04-01T09:23:34.864Z,994.76
2023-04-01T09:24:34.852Z,994.80
2023-04-01T09:25:35.095Z,994.78
2023-04-01T09:26:34.829Z,994.78
2023-04-01T09:27:34.843Z,994.83
2023-04-01T09:28:34.798Z,994.86
2023-04-01T09:29:34.793Z,994.84
2023-04-01T09:30:34.779Z,994.86
2023-04-01T09:31:34.901Z,994.87
2023-04-01T09:32:34.782Z,994.90
2023-04-01T09:33:34.742Z,994.87
2023-04-01T09:34:34.755Z,994.89
2023-04-01T09:35:34.972Z,994.91
2023-04-01T09:36:34.743Z,994.92
2023-04-01T09:37:34.713Z,994.94
2023-04-01T09:38:34.713Z,994.88
2023-04-01T09:39:34.674Z,994.97
2023-04-01T09:40:34.665Z,995.01
2023-04-01T09:41:34.657Z,995.07
2023-04-01T09:42:34.640Z,995.05
2023-04-01T09:43:34.665Z,995.02
2023-04-01T09:44:34.634Z,995.07
2023-04-01T09:45:34.812Z,995.03
2023-04-01T09:46:34.747Z,995.08
2023-04-01T09:47:34.617Z,995.02
2023-04-01T09:48:34.571Z,995.02
2023-04-01T09:49:34.567Z,995.09
2023-04-01T09:50:34.577Z,995.09
2023-04-01T09:51:34.542Z,995.12
2023-04-01T09:52:34.529Z,995.13
2023-04-01T09:53:34.512Z,995.10
2023-04-01T09:54:34.501Z,995.12
2023-04-01T09:55:34.791Z,995.21
2023-04-01T09:56:34.489Z,995.16
2023-04-01T09:57:34.478Z,995.20
2023-04-01T09:58:34.461Z,995.19
2023-04-01T09:59:34.443Z,995.24
2023-04-01T10:00:34.430Z,995.17
2023-04-01T10:01:34.492Z,995.27
2023-04-01T10:02:34.484Z,995.22
2023-04-01T10:03:34.396Z,995.25
2023-04-01T10:04:34.386Z,995.28
2023-04-01T10:05:34.602Z,995.26
2023-04-01T10:06:34.383Z,995.22
2023-04-01T10:07:34.355Z,995.27
2023-04-01T10:08:34.342Z,995.26
2023-04-01T10:09:34.325Z,995.29
2023-04-01T10:10:34.323Z,995.26
2023-04-01T10:11:34.300Z,995.31
2023-04-01T10:12:34.297Z,995.31
2023-04-01T10:13:34.280Z,995.34
2023-04-01T10:14:34.277Z,995.36
2023-04-01T10:15:34.463Z,995.36
2023-04-01T10:16:34.278Z,995.30
2023-04-01T10:17:34.248Z,995.39
2023-04-01T10:18:34.226Z,995.36
2023-04-01T10:19:34.205Z,995.37
2023-04-01T10:20:34.196Z,995.46
2023-04-01T10:21:34.195Z,995.40
2023-04-01T10:22:34.198Z,995.41
2023-04-01T10:23:34.173Z,995.39
2023-04-01T10:24:34.153Z,995.38
2023-04-01T10:25:34.365Z,995.37
2023-04-01T10:26:34.127Z,995.40
2023-04-01T10:27:34.120Z,995.35
2023-04-01T10:28:34.111Z,995.34
2023-04-01T10:29:34.103Z,995.41
2023-04-01T10:30:34.090Z,995.40
2023-04-01T10:31:34.265Z,995.43
2023-04-01T10:32:34.164Z,995.38
2023-04-01T10:33:34.051Z,995.39
2023-04-01T10:34:34.049Z,995.39
2023-04-01T10:35:34.288Z,995.41
2023-04-01T10:36:34.045Z,995.43
2023-04-01T10:37:34.022Z,995.46
2023-04-01T10:38:34.022Z,995.49
2023-04-01T10:39:33.998Z,995.50
2023-04-01T10:40:33.986Z,995.50
2023-04-01T10:41:33.961Z,995.52
2023-04-01T10:42:33.944Z,995.49
2023-04-01T10:43:33.946Z,995.53
2023-04-01T10:44:33.928Z,995.53
2023-04-01T10:45:34.226Z,995.52
2023-04-01T10:46:34.024Z,995.60
2023-04-01T10:47:33.982Z,995.51
2023-04-01T10:48:33.877Z,995.55
2023-04-01T10:49:33.866Z,995.53
2023-04-01T10:50:33.855Z,995.50
2023-04-01T10:51:33.842Z,995.55
2023-04-01T10:52:33.856Z,995.60
2023-04-01T10:53:33.844Z,995.60
2023-04-01T10:54:33.838Z,995.57
2023-04-01T10:55:34.050Z,995.51
2023-04-01T10:56:33.796Z,995.59
2023-04-01T10:57:33.999Z,995.62
2023-04-01T10:58:33.807Z,995.60
2023-04-01T10:59:33.785Z,995.60
2023-04-01T11:00:33.749Z,995.61
2023-04-01T11:01:33.756Z,995.60
2023-04-01T11:02:33.800Z,995.68
2023-04-01T11:03:33.857Z,995.63
2023-04-01T11:04:33.762Z,995.65
2023-04-01T11:05:34.020Z,995.71
2023-04-01T11:06:33.705Z,995.71
2023-04-01T11:07:33.668Z,995.66
2023-04-01T11:08:33.661Z,995.62
2023-04-01T11:09:33.644Z,995.74
2023-04-01T11:10:33.656Z,995.71
2023-04-01T11:11:33.637Z,995.76
2023-04-01T11:12:33.611Z,995.73
2023-04-01T11:13:33.621Z,995.75
2023-04-01T11:14:33.586Z,995.74
2023-04-01T11:15:33.962Z,995.74
2023-04-01T11:16:33.631Z,995.72
2023-04-01T11:17:33.627Z,995.80
2023-04-01T11:18:33.547Z,995.76
2023-04-01T11:19:33.535Z,995.80
2023-04-01T11:20:33.525Z,995.76
2023-04-01T11:21:33.523Z,995.83
2023-04-01T11:22:33.502Z,995.75
2023-04-01T11:23:33.494Z,995.80
2023-04-01T11:24:33.578Z,995.80
2023-04-01T11:25:33.686Z,995.80
2023-04-01T11:26:33.522Z,995.87
2023-04-01T11:27:33.440Z,995.79
2023-04-01T11:28:33.434Z,995.90
2023-04-01T11:29:33.422Z,995.86
2023-04-01T11:30:33.413Z,995.96
2023-04-01T11:31:33.428Z,995.93
2023-04-01T11:32:33.438Z,995.94
2023-04-01T11:33:33.374Z,995.92
2023-04-01T11:34:33.367Z,995.96
2023-04-01T11:35:33.566Z,996.02
2023-04-01T11:36:33.368Z,995.97
2023-04-01T11:37:33.332Z,996.02
2023-04-01T11:38:33.322Z,995.93
2023-04-01T11:39:33.307Z,995.98
2023-04-01T11:40:33.299Z,995.98
2023-04-01T11:41:33.285Z,996.12
2023-04-01T11:42:33.303Z,996.07
2023-04-01T11:43:34.004Z,996.05
2023-04-01T11:44:33.273Z,996.08
2023-04-01T11:45:33.498Z,996.05
2023-04-01T11:46:33.256Z,996.11
2023-04-01T11:47:33.261Z,996.07
2023-04-01T11:48:33.231Z,996.17
2023-04-01T11:49:33.197Z,996.07
2023-04-01T11:50:33.179Z,996.14
2023-04-01T11:51:33.182Z,996.14
2023-04-01T11:52:33.158Z,996.20
2023-04-01T11:53:33.163Z,996.21
2023-04-01T11:54:33.142Z,996.17
2023-04-01T11:55:33.377Z,996.25
2023-04-01T11:56:33.120Z,996.26
2023-04-01T11:57:33.174Z,996.25
2023-04-01T11:58:33.116Z,996.26
2023-04-01T11:59:33.095Z,996.30
2023-04-01T12:00:33.069Z,996.32
2023-04-01T12:01:33.065Z,996.29
2023-04-01T12:02:33.146Z,996.34
2023-04-01T12:03:33.183Z,996.41
2023-04-01T12:04:33.079Z,996.38
2023-04-01T12:05:33.248Z,996.36
2023-04-01T12:06:33.009Z,996.38
2023-04-01T12:07:32.999Z,996.30
2023-04-01T12:08:33.010Z,996.42
2023-04-01T12:09:32.975Z,996.40
2023-04-01T12:10:32.965Z,996.43
2023-04-01T12:11:32.966Z,996.35
2023-04-01T12:12:32.934Z,996.45
2023-04-01T12:13:32.936Z,996.47
2023-04-01T12:14:32.941Z,996.46
2023-04-01T12:15:33.148Z,996.51
2023-04-01T12:16:33.050Z,996.49
2023-04-01T12:17:32.917Z,996.49
2023-04-01T12:18:32.877Z,996.45
2023-04-01T12:19:32.865Z,996.46
2023-04-01T12:20:32.856Z,996.52
2023-04-01T12:21:32.848Z,996.51
2023-04-01T12:22:33.973Z,996.51
2023-04-01T12:23:32.831Z,996.52
2023-04-01T12:24:32.823Z,996.54
2023-04-01T12:25:32.990Z,996.49
2023-04-01T12:26:32.800Z,996.55
2023-04-01T12:27:32.771Z,996.52
2023-04-01T12:28:32.760Z,996.55